Time;durP1;ratioP1;P1;durP2;ratioP2;P2;SDS_P1;SDS_P2;PMS_P1;PMS_P2;Temp;Humidity;BMP_temperature;BMP_pressure;BME280_temperature;BME280_humidity;BME280_pressure;Samples;Min_cycle;Max_cycle;Signal;HPM_P1;HPM_P2
2021/08/10 00:00:07;;;;;;;;;53.25;43.75;;;;;27.28;83.29;100907.06;4939992;28;8847;-76
2021/08/10 00:02:35;;;;;;;;;54.00;45.00;;;;;27.52;82.09;100909.78;4956521;28;8939;-76
2021/08/10 00:05:06;;;;;;;;;56.75;46.75;;;;;27.63;81.31;100907.47;4955675;28;8846;-76
2021/08/10 00:07:34;;;;;;;;;53.00;44.50;;;;;27.68;80.73;100906.97;4956245;28;8874;-76
2021/08/10 00:10:04;;;;;;;;;53.00;44.75;;;;;27.47;82.13;100899.75;4955749;28;9657;-76
2021/08/10 00:12:35;;;;;;;;;51.50;43.75;;;;;27.31;82.52;100900.53;4955805;28;8850;-76
2021/08/10 00:15:06;;;;;;;;;54.75;44.00;;;;;27.28;82.57;100894.94;4938901;28;8870;-76
2021/08/10 00:17:35;;;;;;;;;59.25;47.00;;;;;27.06;82.99;100889.72;4939378;28;8855;-76
2021/08/10 00:20:04;;;;;;;;;51.75;43.00;;;;;27.23;82.64;100892.63;4938614;28;8885;-76
2021/08/10 00:22:32;;;;;;;;;59.00;46.50;;;;;27.34;82.09;100887.47;4955472;28;8865;-76
2021/08/10 00:25:00;;;;;;;;;48.50;41.50;;;;;26.96;83.46;100890.75;4955490;28;8913;-75
2021/08/10 00:27:27;;;;;;;;;51.75;43.75;;;;;27.07;83.92;100884.88;4955388;28;8870;-75
2021/08/10 00:29:55;;;;;;;;;52.00;43.50;;;;;27.04;83.68;100882.91;4955507;28;8879;-75
2021/08/10 00:32:23;;;;;;;;;51.25;43.50;;;;;27.26;82.66;100889.69;4955828;28;8882;-75
2021/08/10 00:34:53;;;;;;;;;55.00;45.50;;;;;27.43;81.77;100882.78;4939144;28;8858;-75
2021/08/10 00:37:21;;;;;;;;;50.00;42.25;;;;;27.63;80.56;100884.75;4956527;28;8953;-76
2021/08/10 00:39:49;;;;;;;;;54.25;45.00;;;;;27.69;80.24;100880.19;4955202;28;8866;-76
2021/08/10 00:42:17;;;;;;;;;50.75;42.75;;;;;27.66;80.63;100876.13;4954949;28;8863;-76
2021/08/10 00:44:45;;;;;;;;;53.25;44.50;;;;;27.59;80.95;100878.34;4954481;28;8851;-76
2021/08/10 00:47:13;;;;;;;;;49.50;41.75;;;;;27.63;80.40;100870.56;4955445;28;8846;-76
2021/08/10 00:49:41;;;;;;;;;50.60;43.00;;;;;27.65;80.01;100873.75;4954886;28;8850;-75
2021/08/10 00:52:09;;;;;;;;;52.50;44.25;;;;;27.70;79.96;100871.22;4954926;28;8851;-76
2021/08/10 00:54:37;;;;;;;;;53.75;44.75;;;;;27.79;79.39;100870.56;4954668;28;8867;-75
2021/08/10 00:57:05;;;;;;;;;50.00;42.75;;;;;27.65;79.70;100868.06;4939600;28;8843;-75
2021/08/10 00:59:35;;;;;;;;;52.50;43.75;;;;;27.75;79.42;100857.69;4955483;28;8882;-76
2021/08/10 01:02:04;;;;;;;;;51.00;43.00;;;;;27.66;79.49;100858.28;4954739;28;8913;-74
2021/08/10 01:04:34;;;;;;;;;59.00;48.00;;;;;27.50;80.47;100863.97;4955393;28;8850;-74
2021/08/10 01:07:33;;;;;;;;;50.75;43.25;;;;;27.58;80.18;100862.56;4954652;28;8850;-75
2021/08/10 01:10:12;;;;;;;;;49.25;40.25;;;;;27.67;79.52;100859.91;4954699;29;9647;-74
2021/08/10 01:13:04;;;;;;;;;58.50;48.25;;;;;27.63;79.37;100864.88;4954876;29;8855;-74
2021/08/10 01:15:42;;;;;;;;;65.50;54.25;;;;;27.43;79.97;100854.38;4937642;29;8863;-74
2021/08/10 01:18:30;;;;;;;;;55.25;45.00;;;;;27.56;79.96;100857.31;4954679;29;8894;-74
2021/08/10 01:21:19;;;;;;;;;55.00;45.25;;;;;27.52;79.96;100850.13;4935363;29;9008;-74
2021/08/10 01:23:56;;;;;;;;;55.00;45.75;;;;;27.54;79.92;100847.66;4937520;29;8895;-75
2021/08/10 01:26:29;;;;;;;;;54.50;44.75;;;;;27.59;79.95;100844.25;4953016;29;8906;-75
2021/08/10 01:29:30;;;;;;;;;71.25;60.00;;;;;27.58;79.74;100845.50;4937708;29;8878;-75
2021/08/10 01:32:00;;;;;;;;;61.25;49.75;;;;;27.34;80.78;100847.72;4924506;29;8886;-75
2021/08/10 01:34:42;;;;;;;;;61.00;50.25;;;;;27.13;81.51;100847.00;4955911;29;8847;-75
2021/08/10 01:37:31;;;;;;;;;64.75;50.25;;;;;27.15;81.73;100849.41;4937341;29;9641;-74
2021/08/10 01:40:03;;;;;;;;;68.25;55.25;;;;;26.73;83.70;100845.47;4950391;29;8869;-74
2021/08/10 01:42:33;;;;;;;;;68.00;56.50;;;;;26.28;86.10;100840.28;4953287;29;8839;-75
2021/08/10 01:45:02;;;;;;;;;61.50;50.25;;;;;26.53;85.33;100849.13;4955094;29;8863;-75
2021/08/10 01:47:32;;;;;;;;;65.50;52.00;;;;;26.84;83.70;100851.72;4954249;29;8866;-75
2021/08/10 01:50:04;;;;;;;;;62.25;49.75;;;;;27.01;82.75;100855.38;4939094;29;8929;-75
2021/08/10 01:52:35;;;;;;;;;68.75;58.50;;;;;27.20;81.91;100853.75;4937859;29;8940;-75
2021/08/10 01:55:03;;;;;;;;;64.50;51.00;;;;;27.33;81.26;100851.81;4954223;28;8871;-75
2021/08/10 01:57:31;;;;;;;;;66.25;54.00;;;;;27.24;81.32;100849.59;4941147;28;8953;-75
2021/08/10 01:59:59;;;;;;;;;64.00;51.00;;;;;27.32;80.62;100836.81;4941575;28;8866;-75
2021/08/10 02:02:28;;;;;;;;;63.00;51.50;;;;;27.27;81.23;100847.91;4956957;28;8866;-75
2021/08/10 02:04:56;;;;;;;;;63.25;50.25;;;;;27.21;81.28;100850.47;4957597;28;8859;-75
2021/08/10 02:07:25;;;;;;;;;66.25;54.00;;;;;27.24;81.35;100843.13;4957797;28;8851;-75
2021/08/10 02:09:54;;;;;;;;;67.75;54.50;;;;;27.34;80.84;100839.22;4958788;28;8875;-75
2021/08/10 02:12:23;;;;;;;;;60.75;50.25;;;;;27.34;81.09;100834.34;4957883;28;8896;-75
2021/08/10 02:14:52;;;;;;;;;60.50;50.00;;;;;27.19;81.62;100837.97;4940244;28;8870;-75
2021/08/10 02:17:21;;;;;;;;;66.75;52.00;;;;;27.22;81.37;100840.72;4940775;28;8847;-75
2021/08/10 02:20:13;;;;;;;;;65.00;51.75;;;;;27.27;80.65;100851.53;4943443;28;8897;-75
2021/08/10 02:22:46;;;;;;;;;67.00;55.00;;;;;27.11;81.74;100846.66;4941665;28;8973;-75
2021/08/10 02:25:19;;;;;;;;;61.00;49.75;;;;;27.02;82.13;100849.25;4957371;28;8835;-75
2021/08/10 02:27:58;;;;;;;;;61.25;49.50;;;;;27.23;81.21;100850.84;4957360;28;8847;-75
2021/08/10 02:30:29;;;;;;;;;61.25;50.00;;;;;27.35;80.50;100847.28;4957450;28;8877;-75
2021/08/10 02:33:05;;;;;;;;;61.00;49.00;;;;;27.46;80.11;100849.09;4957251;28;8851;-75
2021/08/10 02:35:35;;;;;;;;;62.50;51.25;;;;;27.46;79.70;100855.56;4958148;28;8854;-75
2021/08/10 02:38:08;;;;;;;;;60.75;50.00;;;;;27.51;79.54;100846.50;4956941;28;8930;-75
2021/08/10 02:40:41;;;;;;;;;59.25;49.00;;;;;27.17;81.18;100848.97;4957173;28;9600;-75
2021/08/10 02:43:10;;;;;;;;;61.00;50.00;;;;;27.39;80.04;100855.72;4940314;28;8850;-75
2021/08/10 02:45:37;;;;;;;;;65.00;51.75;;;;;27.37;80.04;100852.50;4959584;28;8890;-75
2021/08/10 02:48:06;;;;;;;;;62.50;49.75;;;;;27.45;79.72;100853.94;4958921;28;8871;-75
2021/08/10 02:50:34;;;;;;;;;60.00;49.00;;;;;27.53;79.63;100846.03;4956742;28;8854;-76
2021/08/10 02:53:04;;;;;;;;;61.00;49.75;;;;;27.20;80.57;100859.44;4957083;28;8894;-76
2021/08/10 02:55:41;;;;;;;;;52.00;42.75;;;;;27.02;81.20;100859.81;4939746;28;9585;-74
2021/08/10 02:58:20;;;;;;;;;57.25;47.00;;;;;26.68;82.04;100843.91;4958905;28;9612;-74
2021/08/10 03:01:06;;;;;;;;;62.00;50.50;;;;;26.88;82.51;100847.53;4957141;28;8878;-74
2021/08/10 03:03:35;;;;;;;;;58.50;48.50;;;;;27.14;81.52;100851.47;4940074;28;8855;-75
2021/08/10 03:06:08;;;;;;;;;55.25;46.00;;;;;27.29;80.41;100856.78;4956501;28;8886;-74
2021/08/10 03:08:43;;;;;;;;;54.00;45.00;;;;;27.34;80.06;100857.06;4957846;28;8866;-75
2021/08/10 03:11:37;;;;;;;;;55.75;45.50;;;;;27.28;80.34;100858.81;4957300;28;9609;-74
2021/08/10 03:14:08;;;;;;;;;57.00;47.00;;;;;27.28;80.22;100852.34;4957700;28;8850;-74
2021/08/10 03:16:59;;;;;;;;;58.50;48.00;;;;;27.31;80.05;100857.94;4957689;28;8879;-74
2021/08/10 03:19:28;;;;;;;;;56.75;47.25;;;;;27.22;80.66;100860.59;4957138;28;8847;-74
2021/08/10 03:21:58;;;;;;;;;59.00;48.25;;;;;27.09;81.04;100856.84;4958882;28;8855;-75
2021/08/10 03:24:26;;;;;;;;;56.25;46.75;;;;;26.49;83.60;100856.09;4956405;28;8858;-75
2021/08/10 03:26:58;;;;;;;;;55.25;46.00;;;;;26.54;84.23;100847.88;4956206;28;8862;-72
2021/08/10 03:29:28;;;;;;;;;60.25;49.50;;;;;26.62;83.37;100853.41;4956374;28;8870;-75
2021/08/10 03:31:56;;;;;;;;;56.25;45.25;;;;;26.88;82.71;100856.06;4956553;28;8859;-74
2021/08/10 03:34:24;;;;;;;;;56.25;46.25;;;;;27.17;81.17;100858.28;4955898;28;8846;-74
2021/08/10 03:37:20;;;;;;;;;48.00;39.50;;;;;27.36;80.17;100857.41;4955250;28;8859;-75
2021/08/10 03:40:16;;;;;;;;;60.75;50.00;;;;;27.30;80.63;100849.88;4955712;28;9600;-74
2021/08/10 03:43:13;;;;;;;;;60.75;49.25;;;;;27.23;80.53;100848.00;4955429;28;8918;-74
2021/08/10 03:46:08;;;;;;;;;52.00;44.00;;;;;27.28;80.41;100844.63;4955869;28;8858;-75
2021/08/10 03:49:04;;;;;;;;;55.75;46.75;;;;;27.35;80.20;100850.13;4954941;28;8839;-75
2021/08/10 03:52:00;;;;;;;;;56.00;45.50;;;;;27.29;80.27;100846.22;4957227;28;8873;-75
2021/08/10 03:54:56;;;;;;;;;53.50;44.75;;;;;27.47;79.66;100845.00;4941334;29;8864;-73
2021/08/10 03:57:53;;;;;;;;;50.75;42.50;;;;;27.37;80.13;100847.66;4936443;29;8892;-74
2021/08/10 04:00:52;;;;;;;;;55.50;46.00;;;;;27.39;79.96;100845.16;4935498;29;8947;-74
2021/08/10 04:03:49;;;;;;;;;53.50;44.75;;;;;27.41;79.93;100839.03;4936640;29;8856;-74
2021/08/10 04:06:17;;;;;;;;;62.50;51.25;;;;;27.24;80.40;100843.91;4921909;29;8865;-75
2021/08/10 04:09:01;;;;;;;;;61.50;50.50;;;;;26.94;81.94;100836.47;4938029;29;8852;-74
2021/08/10 04:11:29;;;;;;;;;64.25;52.00;;;;;26.59;84.23;100850.19;4936599;29;9047;-74
2021/08/10 04:14:25;;;;;;;;;65.25;51.75;;;;;26.48;85.56;100846.00;4936018;29;8853;-74
2021/08/10 04:17:26;;;;;;;;;50.75;42.50;;;;;26.34;86.61;100855.56;4937394;29;8844;-76
2021/08/10 04:20:23;;;;;;;;;60.25;49.25;;;;;26.75;84.00;100854.31;4935673;29;8860;-75
2021/08/10 04:23:19;;;;;;;;;57.50;47.50;;;;;27.02;82.81;100849.25;4935861;29;8879;-75
2021/08/10 04:26:15;;;;;;;;;65.50;55.25;;;;;27.01;82.91;100846.88;4928723;29;8883;-75
2021/08/10 04:29:13;;;;;;;;;59.75;49.50;;;;;27.29;81.17;100854.72;4936789;29;8841;-75
2021/08/10 04:32:09;;;;;;;;;58.50;48.50;;;;;27.46;80.58;100849.09;4936441;29;8845;-75
2021/08/10 04:35:05;;;;;;;;;68.25;58.50;;;;;27.35;80.71;100850.13;4936482;29;8905;-75
2021/08/10 04:37:33;;;;;;;;;63.25;51.25;;;;;27.29;81.33;100845.41;4936069;29;8872;-75
2021/08/10 04:40:29;;;;;;;;;62.75;50.75;;;;;27.54;80.11;100842.78;4935142;29;9261;-74
2021/08/10 04:43:25;;;;;;;;;64.00;52.25;;;;;27.50;79.80;100836.38;4936263;29;8849;-75
2021/08/10 04:46:24;;;;;;;;;62.50;50.75;;;;;27.53;79.66;100837.50;4937209;29;8857;-75
2021/08/10 04:49:21;;;;;;;;;62.50;51.25;;;;;27.42;79.28;100838.59;4935356;29;8852;-75
2021/08/10 04:52:20;;;;;;;;;66.50;57.00;;;;;27.29;78.34;100843.38;4923320;29;8856;-75
2021/08/10 04:55:16;;;;;;;;;66.50;56.25;;;;;27.48;78.90;100841.72;4934946;29;8826;-75
2021/08/10 04:58:11;;;;;;;;;63.75;52.25;;;;;27.57;78.78;100839.03;4936483;29;9617;-76
2021/08/10 05:01:08;;;;;;;;;64.50;53.00;;;;;27.56;77.36;100845.97;4934982;29;8854;-79
2021/08/10 05:04:03;;;;;;;;;63.25;51.75;;;;;27.65;77.93;100843.28;4934238;29;8860;-75
2021/08/10 05:07:02;;;;;;;;;61.75;50.25;;;;;27.57;77.70;100838.25;4934687;29;9001;-75
2021/08/10 05:09:57;;;;;;;;;63.75;51.75;;;;;27.53;78.20;100838.34;4922389;29;8868;-76
2021/08/10 05:12:53;;;;;;;;;62.00;51.00;;;;;27.47;75.51;100840.13;4916621;29;8918;-75
2021/08/10 05:15:49;;;;;;;;;60.75;49.00;;;;;27.61;77.05;100836.13;4915404;29;8883;-75
2021/08/10 05:18:47;;;;;;;;;65.50;54.25;;;;;27.42;76.86;100838.59;4916093;29;8874;-75
2021/08/10 05:21:43;;;;;;;;;60.75;50.25;;;;;27.59;77.75;100842.22;4918385;29;8874;-75
2021/08/10 05:24:38;;;;;;;;;61.00;50.25;;;;;27.60;77.14;100835.28;4936320;29;8868;-75
2021/08/10 05:27:34;;;;;;;;;1.50;0.75;;;;;27.72;76.77;100850.88;4934502;29;8940;-75
2021/08/10 05:30:30;;;;;;;;;60.25;49.25;;;;;28.01;75.97;100839.53;4937911;29;8875;-74
2021/08/10 05:33:25;;;;;;;;;58.50;48.50;;;;;28.18;72.90;100843.94;4939388;29;8853;-75
2021/08/10 05:35:53;;;;;;;;;55.75;46.50;;;;;28.46;73.75;100848.06;4938736;29;8865;-73
2021/08/10 05:38:50;;;;;;;;;55.75;46.75;;;;;28.70;73.30;100840.03;4938076;29;8889;-76
2021/08/10 05:41:45;;;;;;;;;57.25;48.25;;;;;28.59;72.81;100841.59;4919261;29;8862;-75
2021/08/10 05:44:41;;;;;;;;;57.50;47.75;;;;;28.59;73.15;100842.38;4919153;29;8867;-75
2021/08/10 05:47:37;;;;;;;;;53.75;45.00;;;;;28.49;71.62;100837.81;4919336;29;8832;-75
2021/08/10 05:50:32;;;;;;;;;51.40;43.60;;;;;28.59;71.01;100831.00;4927627;29;8843;-75
2021/08/10 05:53:30;;;;;;;;;48.00;41.20;;;;;28.38;72.00;100840.19;4917956;29;8848;-75
2021/08/10 05:56:26;;;;;;;;;50.00;43.00;;;;;28.48;72.21;100839.06;4926151;29;8850;-75
2021/08/10 05:59:21;;;;;;;;;53.50;44.75;;;;;28.61;72.44;100836.25;4938190;29;8872;-75
2021/08/10 06:02:17;;;;;;;;;51.60;43.20;;;;;28.42;71.76;100830.28;4937637;29;9653;-75
2021/08/10 06:05:12;;;;;;;;;54.25;45.50;;;;;28.70;72.19;100844.91;4937972;29;8858;-75
2021/08/10 06:08:08;;;;;;;;;54.50;45.75;;;;;28.78;71.08;100846.31;4937396;29;8886;-75
2021/08/10 06:11:04;;;;;;;;;55.00;45.00;;;;;29.01;71.49;100851.72;4937827;29;8839;-75
2021/08/10 06:13:59;;;;;;;;;53.20;44.40;;;;;29.14;70.45;100851.72;4937162;29;8922;-73
2021/08/10 06:16:55;;;;;;;;;51.80;43.80;;;;;29.25;69.20;100855.00;4925357;29;8942;-72
2021/08/10 06:19:55;;;;;;;;;50.40;42.80;;;;;29.12;69.85;100861.94;4926833;29;8863;-74
2021/08/10 06:22:51;;;;;;;;;48.60;41.40;;;;;29.17;69.12;100858.53;4901395;29;8921;-74
2021/08/10 06:25:48;;;;;;;;;50.00;42.00;;;;;29.29;69.50;100852.84;4902564;29;8855;-75
2021/08/10 06:28:46;;;;;;;;;47.80;40.60;;;;;29.40;69.30;100855.34;4899831;29;9621;-75
2021/08/10 06:31:42;;;;;;;;;46.20;39.00;;;;;29.30;69.36;100856.50;4899364;29;8854;-75
2021/08/10 06:34:37;;;;;;;;;52.00;43.20;;;;;29.40;70.16;100863.09;4899394;29;8850;-75
2021/08/10 06:37:33;;;;;;;;;51.60;43.40;;;;;29.41;70.49;100859.78;4886746;29;8945;-75
2021/08/10 06:40:28;;;;;;;;;53.60;44.80;;;;;29.44;69.62;100856.00;4908753;29;8883;-74
2021/08/10 06:43:24;;;;;;;;;49.00;42.00;;;;;29.36;70.52;100849.75;4918073;29;8993;-74
2021/08/10 06:46:20;;;;;;;;;51.20;43.20;;;;;29.52;69.49;100860.28;4918043;29;8902;-75
2021/08/10 06:49:15;;;;;;;;;56.20;46.80;;;;;29.44;72.54;100853.16;4917896;29;8982;-75
2021/08/10 06:52:11;;;;;;;;;53.20;44.60;;;;;29.39;73.84;100850.13;4917907;29;8859;-74
2021/08/10 06:55:07;;;;;;;;;58.20;48.00;;;;;29.50;72.21;100853.41;4917700;29;8862;-74
2021/08/10 06:57:38;;;;;;;;;56.50;47.00;;;;;29.56;72.90;100852.38;4918931;29;8890;-74
2021/08/10 07:00:33;;;;;;;;;51.20;43.00;;;;;29.43;72.25;100854.41;4917862;29;8855;-74
2021/08/10 07:03:29;;;;;;;;;49.60;41.80;;;;;29.59;71.50;100860.00;4917779;29;8859;-74
2021/08/10 07:06:24;;;;;;;;;54.20;45.20;;;;;29.78;71.17;100869.56;4917981;29;9636;-74
2021/08/10 07:09:22;;;;;;;;;55.00;46.00;;;;;29.82;71.36;100863.72;4917660;29;8885;-74
2021/08/10 07:12:17;;;;;;;;;53.40;44.60;;;;;29.70;74.31;100864.56;4917127;29;8882;-74
2021/08/10 07:15:13;;;;;;;;;54.40;44.80;;;;;29.26;75.85;100861.50;4905188;29;8858;-75
2021/08/10 07:17:41;;;;;;;;;53.60;45.00;;;;;29.41;74.96;100859.00;4901738;29;8978;-75
2021/08/10 07:20:36;;;;;;;;;50.25;42.25;;;;;29.50;74.48;100859.91;4917897;29;8858;-74
2021/08/10 07:23:32;;;;;;;;;55.50;45.50;;;;;29.68;74.63;100859.34;4917304;29;8879;-74
2021/08/10 07:26:00;;;;;;;;;55.50;46.50;;;;;29.51;76.91;100858.66;4918834;29;8875;-74
2021/08/10 07:28:28;;;;;;;;;51.40;43.00;;;;;29.62;75.90;100861.16;4918871;29;8863;-75
2021/08/10 07:30:56;;;;;;;;;53.80;44.80;;;;;29.76;74.73;100851.34;4918536;29;8855;-76
2021/08/10 07:33:24;;;;;;;;;53.80;45.00;;;;;29.85;74.48;100855.06;4902132;29;8859;-75
2021/08/10 07:35:52;;;;;;;;;53.20;44.80;;;;;29.95;75.13;100849.44;4918576;29;8863;-75
2021/08/10 07:38:21;;;;;;;;;56.00;47.00;;;;;30.01;73.66;100845.56;4918567;29;8914;-75
2021/08/10 07:40:50;;;;;;;;;57.40;47.40;;;;;29.81;75.00;100850.72;4918894;29;9681;-75
2021/08/10 07:43:19;;;;;;;;;54.60;45.60;;;;;29.63;74.80;100849.31;4918763;29;8855;-76
2021/08/10 07:45:47;;;;;;;;;55.20;46.20;;;;;29.74;74.10;100862.38;4901716;29;8851;-75
2021/08/10 07:48:43;;;;;;;;;53.60;44.80;;;;;29.77;74.97;100858.63;4917400;29;9002;-74
2021/08/10 07:51:39;;;;;;;;;50.60;42.60;;;;;29.67;74.51;100860.56;4917213;29;9037;-74
2021/08/10 07:54:36;;;;;;;;;51.40;43.20;;;;;29.61;74.20;100848.97;4916912;29;8866;-74
2021/08/10 07:57:31;;;;;;;;;51.60;43.60;;;;;29.60;74.46;100846.59;4917942;29;8843;-74
2021/08/10 08:00:28;;;;;;;;;52.80;44.20;;;;;29.69;75.24;100848.72;4917089;29;9613;-74
2021/08/10 08:03:24;;;;;;;;;52.00;43.80;;;;;29.78;73.79;100848.81;4916755;29;8847;-74
2021/08/10 08:06:19;;;;;;;;;49.60;42.20;;;;;29.57;74.99;100851.13;4917020;29;8945;-73
2021/08/10 08:09:15;;;;;;;;;53.80;44.40;;;;;29.63;74.41;100843.59;4917320;29;8931;-73
2021/08/10 08:12:10;;;;;;;;;52.40;43.80;;;;;29.78;75.13;100831.72;4916901;29;8883;-73
2021/08/10 08:15:07;;;;;;;;;52.40;43.80;;;;;30.04;73.36;100830.34;4916700;29;8835;-74
2021/08/10 08:18:02;;;;;;;;;55.20;44.60;;;;;30.26;72.82;100838.97;4916348;29;8855;-74
2021/08/10 08:20:59;;;;;;;;;52.60;43.40;;;;;30.50;70.95;100833.59;4916833;29;8930;-75
2021/08/10 08:23:55;;;;;;;;;53.40;44.80;;;;;30.79;70.69;100832.53;4916143;29;8938;-75
2021/08/10 08:26:50;;;;;;;;;54.40;45.40;;;;;30.89;69.74;100819.88;4917102;29;9690;-75
2021/08/10 08:29:46;;;;;;;;;50.60;43.20;;;;;30.92;69.63;100824.66;4916990;29;8950;-75
2021/08/10 08:32:42;;;;;;;;;47.60;40.40;;;;;30.98;68.67;100825.66;4903943;29;8839;-75
2021/08/10 08:35:38;;;;;;;;;46.80;39.80;;;;;30.99;67.97;100822.31;4916882;29;8855;-74
2021/08/10 08:38:34;;;;;;;;;47.60;40.60;;;;;31.11;67.07;100825.53;4915594;29;8893;-73
2021/08/10 08:41:30;;;;;;;;;46.20;40.00;;;;;31.34;66.94;100824.22;4915797;29;8867;-74
2021/08/10 08:44:26;;;;;;;;;45.40;38.80;;;;;31.51;63.06;100814.09;4929501;29;8833;-74
2021/08/10 08:47:23;;;;;;;;;46.00;39.20;;;;;31.65;62.56;100822.06;4929447;29;8914;-74
2021/08/10 08:50:20;;;;;;;;;38.20;34.20;;;;;31.68;62.24;100815.41;4933812;29;8841;-74
2021/08/10 08:52:53;;;;;;;;;38.20;34.20;;;;;31.77;60.27;100818.31;4936146;29;8881;-74
2021/08/10 08:55:51;;;;;;;;;43.20;36.80;;;;;31.91;60.08;100816.09;4935678;29;9011;-75
2021/08/10 08:58:48;;;;;;;;;45.20;38.60;;;;;31.88;60.21;100814.16;4935925;29;8865;-74
2021/08/10 09:01:48;;;;;;;;;27.00;27.00;;;;;31.79;59.26;100810.03;4927209;29;8853;-75
2021/08/10 09:04:47;;;;;;;;;50.80;42.60;;;;;31.80;59.60;100811.63;4935697;29;8860;-75
2021/08/10 09:07:29;;;;;;;;;42.60;37.00;;;;;31.86;59.15;100811.78;4918115;29;8859;-75
2021/08/10 09:10:29;;;;;;;;;35.60;32.60;;;;;31.87;57.63;100813.38;4916304;29;8847;-75
2021/08/10 09:13:25;;;;;;;;;33.60;31.40;;;;;31.68;59.25;100818.28;4925645;29;9027;-75
2021/08/10 09:16:20;;;;;;;;;44.80;38.60;;;;;31.86;58.59;100814.66;4936084;29;8900;-74
2021/08/10 09:19:16;;;;;;;;;42.20;37.00;;;;;31.82;59.18;100819.72;4946377;29;8946;-73
2021/08/10 09:21:45;;;;;;;;;39.60;35.00;;;;;31.93;57.89;100813.56;4935002;29;8933;-74
2021/08/10 09:24:14;;;;;;;;;48.20;41.60;;;;;31.85;57.84;100827.38;4936195;29;8831;-75
2021/08/10 09:26:43;;;;;;;;;43.60;37.60;;;;;31.93;57.54;100817.19;4936239;29;8835;-74
2021/08/10 09:29:45;;;;;;;;;42.20;35.40;;;;;31.74;60.46;100832.72;4921127;29;8878;-73
2021/08/10 09:32:14;;;;;;;;;45.00;38.80;;;;;31.69;59.53;100828.44;4935763;29;8897;-73
2021/08/10 09:34:42;;;;;;;;;48.20;40.80;;;;;31.98;57.79;100815.78;4918631;29;8870;-73
2021/08/10 09:38:04;;;;;;;;;48.40;41.40;;;;;32.11;58.71;100807.81;4935274;29;8865;-75
2021/08/10 09:41:07;;;;;;;;;40.20;35.40;;;;;32.31;57.21;100801.59;4916216;29;8925;-74
2021/08/10 09:44:25;;;;;;;;;47.60;41.20;;;;;32.42;57.12;100809.72;4932733;29;8864;-74
2021/08/10 09:47:41;;;;;;;;;36.80;33.60;;;;;32.25;57.78;100800.66;4903726;29;8955;-74
2021/08/10 09:50:18;;;;;;;;;37.60;34.00;;;;;32.27;58.62;100796.03;4930495;29;8874;-78
2021/08/10 09:52:46;;;;;;;;;38.80;34.60;;;;;32.41;59.76;100788.88;4936145;29;8947;-76
2021/08/10 09:55:18;;;;;;;;;41.80;36.60;;;;;32.41;60.46;100782.38;4936356;29;8872;-77
2021/08/10 09:58:04;;;;;;;;;46.80;40.20;;;;;32.45;57.68;100778.09;4936265;29;8869;-77
2021/08/10 10:00:41;;;;;;;;;53.80;45.20;;;;;32.34;56.23;100772.84;4920048;29;9745;-77
2021/08/10 10:03:23;;;;;;;;;47.60;40.20;;;;;32.89;56.26;100764.09;4935936;29;8852;-77
2021/08/10 10:05:55;;;;;;;;;55.60;46.00;;;;;32.57;56.60;100767.69;4936233;29;8849;-78
2021/08/10 10:08:26;;;;;;;;;51.00;42.20;;;;;32.75;56.99;100758.28;4935944;29;8883;-77
2021/08/10 10:11:01;;;;;;;;;62.80;49.80;;;;;32.78;56.07;100754.44;4935491;29;8885;-77
2021/08/10 10:13:50;;;;;;;;;55.20;45.80;;;;;32.49;57.72;100749.28;4935583;29;8865;-77
2021/08/10 10:16:20;;;;;;;;;52.60;42.80;;;;;32.35;56.23;100742.94;4941402;29;8877;-78
2021/08/10 10:18:53;;;;;;;;;49.80;41.00;;;;;32.50;56.73;100740.19;4958503;29;8813;-77
2021/08/10 10:21:45;;;;;;;;;51.20;42.80;;;;;32.52;54.58;100731.94;4958074;29;8892;-77
2021/08/10 10:24:14;;;;;;;;;49.00;41.80;;;;;32.76;53.26;100737.72;4939521;29;8873;-77
2021/08/10 10:26:46;;;;;;;;;40.00;35.60;;;;;32.74;52.16;100723.09;4939792;29;8833;-72
2021/08/10 10:29:16;;;;;;;;;45.80;38.20;;;;;32.69;51.88;100715.19;4953748;29;8888;-76
2021/08/10 10:31:44;;;;;;;;;48.00;41.00;;;;;32.49;51.50;100720.66;4951678;29;8875;-77
2021/08/10 10:34:13;;;;;;;;;50.20;42.20;;;;;32.50;50.53;100716.50;4909250;29;8962;-78
2021/08/10 10:36:45;;;;;;;;;42.60;36.80;;;;;32.72;51.92;100710.53;4938576;29;8849;-78
2021/08/10 10:39:22;;;;;;;;;49.00;40.80;;;;;32.49;50.50;100717.78;4939433;29;8985;-78
2021/08/10 10:41:54;;;;;;;;;48.00;40.20;;;;;32.50;51.42;100723.03;4923044;29;8857;-77
2021/08/10 10:44:47;;;;;;;;;43.40;38.00;;;;;32.64;51.53;100721.56;4938578;29;8896;-78
2021/08/10 10:47:20;;;;;;;;;48.00;38.80;;;;;32.69;50.60;100726.63;4938001;29;8875;-76
2021/08/10 10:49:57;;;;;;;;;39.60;33.80;;;;;32.70;49.61;100716.75;4938212;29;8849;-78
2021/08/10 10:52:30;;;;;;;;;49.00;40.40;;;;;32.86;51.10;100727.84;4938056;29;8943;-78
2021/08/10 10:54:59;;;;;;;;;47.80;40.20;;;;;33.05;50.11;100730.59;4905869;29;8849;-78
2021/08/10 10:57:30;;;;;;;;;46.20;37.20;;;;;33.06;49.20;100729.34;4939921;29;8857;-77
2021/08/10 11:00:05;;;;;;;;;35.60;32.40;;;;;33.05;49.77;100716.28;4943411;29;8959;-78
2021/08/10 11:02:37;;;;;;;;;40.60;35.20;;;;;32.93;50.32;100723.84;4922671;29;8949;-78
2021/08/10 11:07:47;;;;;;;;;41.20;35.80;;;;;32.94;49.96;100724.63;4938778;29;8862;-78
2021/08/10 11:10:44;;;;;;;;;27.80;26.60;;;;;32.65;49.60;100732.50;4938206;29;8932;-77
2021/08/10 11:13:21;;;;;;;;;21.80;20.40;;;;;32.81;49.68;100731.31;4938035;29;8896;-76
2021/08/10 11:15:49;;;;;;;;;25.20;25.20;;;;;32.82;50.17;100744.41;4938357;29;8854;-76
2021/08/10 11:18:17;;;;;;;;;19.20;19.20;;;;;32.77;50.17;100741.38;4938357;29;8901;-76
2021/08/10 11:21:08;;;;;;;;;24.00;23.60;;;;;32.50;50.13;100745.94;4938402;29;8961;-76
2021/08/10 11:23:37;;;;;;;;;20.40;20.40;;;;;32.31;49.85;100747.25;4931202;29;8882;-77
2021/08/10 11:26:05;;;;;;;;;19.40;19.40;;;;;32.41;49.40;100748.03;4937971;29;8950;-77
2021/08/10 11:28:52;;;;;;;;;19.00;19.00;;;;;32.32;49.07;100741.06;4938125;29;8981;-77
2021/08/10 11:31:42;;;;;;;;;21.40;21.40;;;;;32.37;49.54;100745.34;4937099;29;9654;-78
2021/08/10 11:34:31;;;;;;;;;21.00;21.00;;;;;32.05;48.05;100741.06;4935961;29;8879;-78
2021/08/10 11:37:18;;;;;;;;;19.20;19.20;;;;;32.17;49.75;100734.38;4937302;29;8866;-79
2021/08/10 11:40:06;;;;;;;;;19.40;19.40;;;;;32.19;49.42;100733.91;4938378;28;8888;-78
2021/08/10 11:42:35;;;;;;;;;18.60;18.60;;;;;32.35;49.65;100731.50;4955999;28;8861;-78
2021/08/10 11:45:04;;;;;;;;;20.00;20.00;;;;;32.42;48.42;100736.09;4956367;28;8857;-79
2021/08/10 11:47:31;;;;;;;;;18.00;18.00;;;;;32.50;48.23;100730.81;4956100;28;8872;-79
2021/08/10 11:49:59;;;;;;;;;20.60;20.60;;;;;32.50;53.07;100731.63;4955871;28;8869;-73
2021/08/10 11:52:40;;;;;;;;;23.60;23.60;;;;;32.54;50.37;100735.13;4955894;28;8869;-73
2021/08/10 11:55:37;;;;;;;;;21.40;21.40;;;;;32.71;50.80;100738.38;4954725;28;8941;-73
2021/08/10 11:58:06;;;;;;;;;20.00;20.00;;;;;32.76;49.94;100736.94;4955781;28;8877;-73
2021/08/10 12:00:36;;;;;;;;;18.60;18.60;;;;;32.64;47.67;100733.00;4954816;28;9631;-73
2021/08/10 12:03:04;;;;;;;;;17.60;17.00;;;;;32.74;47.67;100730.88;4955210;28;8885;-73
2021/08/10 12:05:36;;;;;;;;;20.00;20.00;;;;;32.73;49.56;100723.56;4937715;28;8876;-72
2021/08/10 12:08:06;;;;;;;;;20.80;20.80;;;;;33.05;47.80;100725.69;4957439;28;9649;-72
2021/08/10 12:11:02;;;;;;;;;20.40;20.40;;;;;33.11;51.40;100711.47;4949027;28;8844;-70
2021/08/10 12:14:29;;;;;;;;;21.00;21.00;;;;;33.42;47.69;100714.00;4954546;28;9607;-71
2021/08/10 12:17:24;;;;;;;;;26.00;23.60;;;;;33.71;46.61;100719.00;4954366;28;8857;-71
2021/08/10 12:19:52;;;;;;;;;19.20;19.20;;;;;33.88;45.70;100720.13;4955261;28;8881;-71
2021/08/10 12:22:58;;;;;;;;;19.60;19.60;;;;;34.15;45.82;100712.56;4954341;28;8861;-71
2021/08/10 12:25:54;;;;;;;;;21.00;21.00;;;;;34.46;44.88;100712.88;4935837;29;8844;-70
2021/08/10 12:28:57;;;;;;;;;25.00;23.00;;;;;34.53;45.39;100712.47;4936595;29;8876;-71
2021/08/10 12:31:55;;;;;;;;;22.40;22.40;;;;;34.66;45.70;100708.47;4936595;29;8898;-72